sensor_id;sensor_type;location;lat;lon;timestamp;P1;durP1;ratioP1;P2;durP2;ratioP2
8001;SDS011;4046;48.774;8.732;2022-10-16T00:01:10;1.20;;;1.00;;
8001;SDS011;4046;48.774;8.732;2022-10-16T00:03:38;1.30;;;0.90;;
8001;SDS011;4046;48.774;8.732;2022-10-16T00:06:04;1.20;;;1.00;;
8001;SDS011;4046;48.774;8.732;2022-10-16T00:08:31;1.20;;;0.90;;
8001;SDS011;4046;48.774;8.732;2022-10-16T00:10:58;1.20;;;0.87;;
8001;SDS011;4046;48.774;8.732;2022-10-16T00:13:26;1.20;;;0.90;;
8001;SDS011;4046;48.774;8.732;2022-10-16T00:15:52;1.20;;;0.87;;
8001;SDS011;4046;48.774;8.732;2022-10-16T00:18:21;1.20;;;0.80;;
8001;SDS011;4046;48.774;8.732;2022-10-16T00:20:47;1.20;;;0.90;;
8001;SDS011;4046;48.774;8.732;2022-10-16T00:23:12;1.20;;;1.00;;
8001;SDS011;4046;48.774;8.732;2022-10-16T00:25:38;1.20;;;1.00;;
8001;SDS011;4046;48.774;8.732;2022-10-16T00:28:04;1.20;;;0.90;;
8001;SDS011;4046;48.774;8.732;2022-10-16T00:30:29;1.20;;;0.97;;
8001;SDS011;4046;48.774;8.732;2022-10-16T00:32:55;1.30;;;0.90;;
8001;SDS011;4046;48.774;8.732;2022-10-16T00:35:21;1.50;;;0.90;;
8001;SDS011;4046;48.774;8.732;2022-10-16T00:37:47;1.10;;;0.80;;
8001;SDS011;4046;48.774;8.732;2022-10-16T00:40:13;1.20;;;1.00;;
8001;SDS011;4046;48.774;8.732;2022-10-16T00:42:38;1.20;;;0.80;;
8001;SDS011;4046;48.774;8.732;2022-10-16T00:45:05;1.20;;;0.83;;
8001;SDS011;4046;48.774;8.732;2022-10-16T00:47:36;1.20;;;0.80;;
8001;SDS011;4046;48.774;8.732;2022-10-16T00:50:08;1.83;;;0.87;;
8001;SDS011;4046;48.774;8.732;2022-10-16T00:52:39;1.20;;;0.90;;
8001;SDS011;4046;48.774;8.732;2022-10-16T00:55:08;1.20;;;0.80;;
8001;SDS011;4046;48.774;8.732;2022-10-16T00:57:34;1.30;;;1.00;;
8001;SDS011;4046;48.774;8.732;2022-10-16T01:00:00;1.67;;;1.00;;
8001;SDS011;4046;48.774;8.732;2022-10-16T01:02:30;1.80;;;0.90;;
8001;SDS011;4046;48.774;8.732;2022-10-16T01:04:56;1.20;;;0.90;;
8001;SDS011;4046;48.774;8.732;2022-10-16T01:10:25;1.20;;;0.90;;
8001;SDS011;4046;48.774;8.732;2022-10-16T01:13:09;1.20;;;0.80;;
8001;SDS011;4046;48.774;8.732;2022-10-16T01:15:46;1.20;;;0.83;;
8001;SDS011;4046;48.774;8.732;2022-10-16T01:18:14;1.93;;;1.07;;
8001;SDS011;4046;48.774;8.732;2022-10-16T01:23:25;1.20;;;0.87;;
8001;SDS011;4046;48.774;8.732;2022-10-16T01:26:07;1.40;;;0.87;;
8001;SDS011;4046;48.774;8.732;2022-10-16T01:28:46;1.40;;;0.90;;
8001;SDS011;4046;48.774;8.732;2022-10-16T01:31:21;1.20;;;0.80;;
8001;SDS011;4046;48.774;8.732;2022-10-16T01:33:53;1.20;;;0.90;;
8001;SDS011;4046;48.774;8.732;2022-10-16T01:36:26;1.20;;;1.00;;
8001;SDS011;4046;48.774;8.732;2022-10-16T01:39:00;1.17;;;0.90;;
8001;SDS011;4046;48.774;8.732;2022-10-16T01:41:30;1.20;;;0.80;;
8001;SDS011;4046;48.774;8.732;2022-10-16T01:44:08;1.20;;;0.90;;
8001;SDS011;4046;48.774;8.732;2022-10-16T01:46:39;1.43;;;0.93;;
8001;SDS011;4046;48.774;8.732;2022-10-16T01:49:06;1.20;;;0.87;;
8001;SDS011;4046;48.774;8.732;2022-10-16T01:51:34;1.10;;;0.70;;
8001;SDS011;4046;48.774;8.732;2022-10-16T01:54:02;1.13;;;0.80;;
8001;SDS011;4046;48.774;8.732;2022-10-16T01:56:32;2.60;;;0.87;;
8001;SDS011;4046;48.774;8.732;2022-10-16T01:59:04;1.20;;;0.80;;
8001;SDS011;4046;48.774;8.732;2022-10-16T02:01:42;1.23;;;1.00;;
8001;SDS011;4046;48.774;8.732;2022-10-16T02:04:13;1.30;;;0.93;;
8001;SDS011;4046;48.774;8.732;2022-10-16T02:06:42;1.23;;;0.90;;
8001;SDS011;4046;48.774;8.732;2022-10-16T02:09:08;1.30;;;0.80;;
8001;SDS011;4046;48.774;8.732;2022-10-16T02:11:34;1.10;;;0.73;;
8001;SDS011;4046;48.774;8.732;2022-10-16T02:14:06;1.23;;;0.90;;
8001;SDS011;4046;48.774;8.732;2022-10-16T02:16:36;1.20;;;0.80;;
8001;SDS011;4046;48.774;8.732;2022-10-16T02:19:08;1.20;;;0.90;;
8001;SDS011;4046;48.774;8.732;2022-10-16T02:27:24;1.20;;;0.90;;
8001;SDS011;4046;48.774;8.732;2022-10-16T02:29:59;1.10;;;0.80;;
8001;SDS011;4046;48.774;8.732;2022-10-16T02:32:32;1.20;;;0.80;;
8001;SDS011;4046;48.774;8.732;2022-10-16T02:35:01;1.30;;;1.00;;
8001;SDS011;4046;48.774;8.732;2022-10-16T02:37:27;1.20;;;0.80;;
8001;SDS011;4046;48.774;8.732;2022-10-16T02:39:54;1.20;;;0.80;;
8001;SDS011;4046;48.774;8.732;2022-10-16T02:42:26;1.20;;;0.80;;
8001;SDS011;4046;48.774;8.732;2022-10-16T02:44:54;1.17;;;0.77;;
8001;SDS011;4046;48.774;8.732;2022-10-16T02:47:19;1.20;;;0.80;;
8001;SDS011;4046;48.774;8.732;2022-10-16T02:49:45;1.10;;;0.70;;
8001;SDS011;4046;48.774;8.732;2022-10-16T02:52:10;1.20;;;0.80;;
8001;SDS011;4046;48.774;8.732;2022-10-16T02:54:36;1.40;;;0.90;;
8001;SDS011;4046;48.774;8.732;2022-10-16T02:57:02;1.20;;;0.87;;
8001;SDS011;4046;48.774;8.732;2022-10-16T02:59:28;1.20;;;0.80;;
8001;SDS011;4046;48.774;8.732;2022-10-16T03:01:54;1.20;;;0.80;;
8001;SDS011;4046;48.774;8.732;2022-10-16T03:04:19;1.20;;;0.80;;
8001;SDS011;4046;48.774;8.732;2022-10-16T03:06:45;1.20;;;0.80;;
8001;SDS011;4046;48.774;8.732;2022-10-16T03:09:11;1.20;;;0.80;;
8001;SDS011;4046;48.774;8.732;2022-10-16T03:11:37;1.20;;;0.80;;
8001;SDS011;4046;48.774;8.732;2022-10-16T03:14:02;1.20;;;0.77;;
8001;SDS011;4046;48.774;8.732;2022-10-16T03:16:28;1.20;;;0.80;;
8001;SDS011;4046;48.774;8.732;2022-10-16T03:18:54;1.10;;;0.70;;
8001;SDS011;4046;48.774;8.732;2022-10-16T03:21:19;1.20;;;0.80;;
8001;SDS011;4046;48.774;8.732;2022-10-16T03:23:45;1.20;;;0.90;;
8001;SDS011;4046;48.774;8.732;2022-10-16T03:26:11;1.20;;;0.90;;
8001;SDS011;4046;48.774;8.732;2022-10-16T03:28:37;1.20;;;0.80;;
8001;SDS011;4046;48.774;8.732;2022-10-16T03:31:03;1.20;;;0.90;;
8001;SDS011;4046;48.774;8.732;2022-10-16T03:33:28;1.20;;;0.90;;
8001;SDS011;4046;48.774;8.732;2022-10-16T03:35:54;1.50;;;1.00;;
8001;SDS011;4046;48.774;8.732;2022-10-16T03:38:20;1.30;;;0.90;;
8001;SDS011;4046;48.774;8.732;2022-10-16T03:40:46;1.17;;;0.80;;
8001;SDS011;4046;48.774;8.732;2022-10-16T03:43:12;1.10;;;0.80;;
8001;SDS011;4046;48.774;8.732;2022-10-16T03:45:38;1.30;;;0.80;;
8001;SDS011;4046;48.774;8.732;2022-10-16T03:48:03;1.93;;;0.70;;
8001;SDS011;4046;48.774;8.732;2022-10-16T03:50:29;1.10;;;0.70;;
8001;SDS011;4046;48.774;8.732;2022-10-16T03:52:55;1.10;;;0.73;;
8001;SDS011;4046;48.774;8.732;2022-10-16T03:55:21;1.20;;;0.70;;
8001;SDS011;4046;48.774;8.732;2022-10-16T03:57:46;1.20;;;0.80;;
8001;SDS011;4046;48.774;8.732;2022-10-16T04:00:12;1.17;;;0.73;;
8001;SDS011;4046;48.774;8.732;2022-10-16T04:02:38;1.20;;;0.90;;
8001;SDS011;4046;48.774;8.732;2022-10-16T04:05:04;1.20;;;0.80;;
8001;SDS011;4046;48.774;8.732;2022-10-16T04:07:30;1.10;;;0.70;;
8001;SDS011;4046;48.774;8.732;2022-10-16T04:09:56;1.13;;;0.80;;
8001;SDS011;4046;48.774;8.732;2022-10-16T04:12:24;2.37;;;1.13;;
8001;SDS011;4046;48.774;8.732;2022-10-16T04:14:50;1.20;;;0.90;;
8001;SDS011;4046;48.774;8.732;2022-10-16T04:17:16;1.20;;;0.90;;
8001;SDS011;4046;48.774;8.732;2022-10-16T04:19:41;1.20;;;0.90;;
8001;SDS011;4046;48.774;8.732;2022-10-16T04:22:07;1.20;;;0.80;;
8001;SDS011;4046;48.774;8.732;2022-10-16T04:24:33;1.20;;;1.00;;
8001;SDS011;4046;48.774;8.732;2022-10-16T04:26:59;1.10;;;0.77;;
8001;SDS011;4046;48.774;8.732;2022-10-16T04:29:25;1.23;;;0.77;;
8001;SDS011;4046;48.774;8.732;2022-10-16T04:31:50;1.10;;;0.80;;
8001;SDS011;4046;48.774;8.732;2022-10-16T04:34:16;1.10;;;0.73;;
8001;SDS011;4046;48.774;8.732;2022-10-16T04:36:42;1.10;;;0.80;;
8001;SDS011;4046;48.774;8.732;2022-10-16T04:39:08;1.87;;;1.30;;
8001;SDS011;4046;48.774;8.732;2022-10-16T04:41:33;1.43;;;0.80;;
8001;SDS011;4046;48.774;8.732;2022-10-16T04:43:59;1.10;;;0.70;;
8001;SDS011;4046;48.774;8.732;2022-10-16T04:46:25;1.20;;;0.80;;
8001;SDS011;4046;48.774;8.732;2022-10-16T04:48:50;1.10;;;0.80;;
8001;SDS011;4046;48.774;8.732;2022-10-16T04:51:16;1.10;;;0.80;;
8001;SDS011;4046;48.774;8.732;2022-10-16T04:53:42;1.20;;;0.80;;
8001;SDS011;4046;48.774;8.732;2022-10-16T04:56:07;1.20;;;0.80;;
8001;SDS011;4046;48.774;8.732;2022-10-16T04:58:33;1.10;;;0.70;;
8001;SDS011;4046;48.774;8.732;2022-10-16T05:00:59;1.20;;;0.80;;
8001;SDS011;4046;48.774;8.732;2022-10-16T05:03:24;1.20;;;0.80;;
8001;SDS011;4046;48.774;8.732;2022-10-16T05:05:50;1.20;;;0.70;;
8001;SDS011;4046;48.774;8.732;2022-10-16T05:08:16;1.20;;;0.90;;
8001;SDS011;4046;48.774;8.732;2022-10-16T05:10:42;1.13;;;0.70;;
8001;SDS011;4046;48.774;8.732;2022-10-16T05:13:09;1.10;;;0.63;;
8001;SDS011;4046;48.774;8.732;2022-10-16T05:15:35;1.17;;;0.87;;
8001;SDS011;4046;48.774;8.732;2022-10-16T05:18:01;1.10;;;0.70;;
8001;SDS011;4046;48.774;8.732;2022-10-16T05:20:27;1.20;;;0.70;;
8001;SDS011;4046;48.774;8.732;2022-10-16T05:22:53;1.30;;;0.70;;
8001;SDS011;4046;48.774;8.732;2022-10-16T05:25:18;1.10;;;0.70;;
8001;SDS011;4046;48.774;8.732;2022-10-16T05:27:48;1.10;;;0.70;;
8001;SDS011;4046;48.774;8.732;2022-10-16T05:30:14;1.10;;;0.60;;
8001;SDS011;4046;48.774;8.732;2022-10-16T05:32:40;1.10;;;0.70;;
8001;SDS011;4046;48.774;8.732;2022-10-16T05:35:06;1.10;;;0.80;;
8001;SDS011;4046;48.774;8.732;2022-10-16T05:37:32;1.10;;;0.80;;
8001;SDS011;4046;48.774;8.732;2022-10-16T05:39:58;1.10;;;0.70;;
8001;SDS011;4046;48.774;8.732;2022-10-16T05:42:23;1.20;;;0.80;;
8001;SDS011;4046;48.774;8.732;2022-10-16T05:44:49;4.70;;;0.90;;
8001;SDS011;4046;48.774;8.732;2022-10-16T05:47:15;1.50;;;0.90;;
8001;SDS011;4046;48.774;8.732;2022-10-16T05:49:40;1.20;;;0.80;;
8001;SDS011;4046;48.774;8.732;2022-10-16T05:52:06;1.20;;;0.80;;
8001;SDS011;4046;48.774;8.732;2022-10-16T05:54:32;1.30;;;0.70;;
8001;SDS011;4046;48.774;8.732;2022-10-16T05:56:57;1.10;;;0.70;;
8001;SDS011;4046;48.774;8.732;2022-10-16T05:59:23;1.13;;;0.70;;
8001;SDS011;4046;48.774;8.732;2022-10-16T06:01:49;1.13;;;0.70;;
8001;SDS011;4046;48.774;8.732;2022-10-16T06:04:15;1.20;;;0.70;;
8001;SDS011;4046;48.774;8.732;2022-10-16T06:06:40;1.10;;;0.70;;
8001;SDS011;4046;48.774;8.732;2022-10-16T06:09:06;1.67;;;0.80;;
8001;SDS011;4046;48.774;8.732;2022-10-16T06:11:32;1.10;;;0.80;;
8001;SDS011;4046;48.774;8.732;2022-10-16T06:13:59;1.20;;;0.90;;
8001;SDS011;4046;48.774;8.732;2022-10-16T06:16:32;1.10;;;0.70;;
8001;SDS011;4046;48.774;8.732;2022-10-16T06:18:59;1.20;;;0.80;;
8001;SDS011;4046;48.774;8.732;2022-10-16T06:21:26;1.20;;;0.80;;
8001;SDS011;4046;48.774;8.732;2022-10-16T06:23:53;1.20;;;0.77;;
8001;SDS011;4046;48.774;8.732;2022-10-16T06:26:21;1.77;;;0.70;;
8001;SDS011;4046;48.774;8.732;2022-10-16T06:28:48;1.17;;;0.70;;
8001;SDS011;4046;48.774;8.732;2022-10-16T06:31:15;1.10;;;0.70;;
8001;SDS011;4046;48.774;8.732;2022-10-16T06:33:42;1.10;;;0.70;;
8001;SDS011;4046;48.774;8.732;2022-10-16T06:36:09;1.20;;;0.90;;
8001;SDS011;4046;48.774;8.732;2022-10-16T06:38:36;1.20;;;0.80;;
8001;SDS011;4046;48.774;8.732;2022-10-16T06:41:03;1.13;;;0.77;;
8001;SDS011;4046;48.774;8.732;2022-10-16T06:43:30;1.70;;;0.77;;
8001;SDS011;4046;48.774;8.732;2022-10-16T06:46:04;1.10;;;0.70;;
8001;SDS011;4046;48.774;8.732;2022-10-16T06:48:32;1.10;;;0.70;;
8001;SDS011;4046;48.774;8.732;2022-10-16T06:50:59;1.20;;;0.80;;
8001;SDS011;4046;48.774;8.732;2022-10-16T06:53:30;1.20;;;0.70;;
8001;SDS011;4046;48.774;8.732;2022-10-16T06:55:58;1.80;;;0.70;;
8001;SDS011;4046;48.774;8.732;2022-10-16T06:58:34;1.10;;;0.70;;
8001;SDS011;4046;48.774;8.732;2022-10-16T07:00:59;1.87;;;0.80;;
8001;SDS011;4046;48.774;8.732;2022-10-16T07:03:25;1.30;;;0.70;;
8001;SDS011;4046;48.774;8.732;2022-10-16T07:05:51;1.20;;;0.80;;
8001;SDS011;4046;48.774;8.732;2022-10-16T07:08:17;1.10;;;0.70;;
8001;SDS011;4046;48.774;8.732;2022-10-16T07:10:42;1.10;;;0.70;;
8001;SDS011;4046;48.774;8.732;2022-10-16T07:13:08;1.20;;;0.80;;
8001;SDS011;4046;48.774;8.732;2022-10-16T07:15:33;1.10;;;0.70;;
8001;SDS011;4046;48.774;8.732;2022-10-16T07:17:59;1.20;;;0.67;;
8001;SDS011;4046;48.774;8.732;2022-10-16T07:20:25;1.10;;;0.60;;
8001;SDS011;4046;48.774;8.732;2022-10-16T07:22:51;1.10;;;0.70;;
8001;SDS011;4046;48.774;8.732;2022-10-16T07:25:17;1.33;;;0.87;;
8001;SDS011;4046;48.774;8.732;2022-10-16T07:27:43;1.20;;;0.80;;
8001;SDS011;4046;48.774;8.732;2022-10-16T07:30:09;1.20;;;0.83;;
8001;SDS011;4046;48.774;8.732;2022-10-16T07:32:35;1.20;;;0.80;;
8001;SDS011;4046;48.774;8.732;2022-10-16T07:35:00;1.20;;;0.90;;
8001;SDS011;4046;48.774;8.732;2022-10-16T07:37:26;1.10;;;0.63;;
8001;SDS011;4046;48.774;8.732;2022-10-16T07:39:52;1.10;;;0.67;;
8001;SDS011;4046;48.774;8.732;2022-10-16T07:42:17;1.10;;;0.63;;
8001;SDS011;4046;48.774;8.732;2022-10-16T07:44:43;1.10;;;0.70;;
8001;SDS011;4046;48.774;8.732;2022-10-16T07:47:09;1.10;;;0.70;;
8001;SDS011;4046;48.774;8.732;2022-10-16T07:49:34;1.10;;;0.60;;
8001;SDS011;4046;48.774;8.732;2022-10-16T07:52:00;1.20;;;0.80;;
8001;SDS011;4046;48.774;8.732;2022-10-16T07:54:26;1.20;;;0.80;;
8001;SDS011;4046;48.774;8.732;2022-10-16T07:56:51;1.10;;;0.80;;
8001;SDS011;4046;48.774;8.732;2022-10-16T07:59:17;1.10;;;0.70;;
8001;SDS011;4046;48.774;8.732;2022-10-16T08:01:43;1.10;;;0.70;;
8001;SDS011;4046;48.774;8.732;2022-10-16T08:04:11;1.10;;;0.60;;
8001;SDS011;4046;48.774;8.732;2022-10-16T08:06:37;1.20;;;0.80;;
8001;SDS011;4046;48.774;8.732;2022-10-16T08:09:04;1.10;;;0.70;;
8001;SDS011;4046;48.774;8.732;2022-10-16T08:11:31;1.13;;;0.70;;
8001;SDS011;4046;48.774;8.732;2022-10-16T08:13:57;1.30;;;1.00;;
8001;SDS011;4046;48.774;8.732;2022-10-16T08:16:23;1.20;;;0.80;;
8001;SDS011;4046;48.774;8.732;2022-10-16T08:18:48;1.20;;;0.80;;
8001;SDS011;4046;48.774;8.732;2022-10-16T08:21:17;1.10;;;0.70;;
8001;SDS011;4046;48.774;8.732;2022-10-16T08:23:45;1.30;;;0.80;;
8001;SDS011;4046;48.774;8.732;2022-10-16T08:26:11;1.10;;;0.70;;
8001;SDS011;4046;48.774;8.732;2022-10-16T08:28:37;1.50;;;0.80;;
8001;SDS011;4046;48.774;8.732;2022-10-16T08:31:06;2.37;;;0.80;;
8001;SDS011;4046;48.774;8.732;2022-10-16T08:33:32;1.20;;;0.70;;
8001;SDS011;4046;48.774;8.732;2022-10-16T08:36:00;1.83;;;0.80;;
8001;SDS011;4046;48.774;8.732;2022-10-16T08:38:26;1.10;;;0.80;;
8001;SDS011;4046;48.774;8.732;2022-10-16T08:40:51;1.10;;;0.70;;
8001;SDS011;4046;48.774;8.732;2022-10-16T08:43:26;1.30;;;0.87;;
8001;SDS011;4046;48.774;8.732;2022-10-16T08:51:14;1.10;;;0.70;;
8001;SDS011;4046;48.774;8.732;2022-10-16T08:53:49;3.17;;;1.00;;
8001;SDS011;4046;48.774;8.732;2022-10-16T08:56:19;4.50;;;1.10;;
8001;SDS011;4046;48.774;8.732;2022-10-16T08:58:45;4.90;;;1.60;;
8001;SDS011;4046;48.774;8.732;2022-10-16T09:01:14;5.83;;;1.20;;
8001;SDS011;4046;48.774;8.732;2022-10-16T09:03:54;4.53;;;1.10;;
8001;SDS011;4046;48.774;8.732;2022-10-16T09:06:59;5.60;;;1.17;;
8001;SDS011;4046;48.774;8.732;2022-10-16T09:15:35;2.90;;;1.03;;
8001;SDS011;4046;48.774;8.732;2022-10-16T09:18:11;2.90;;;1.30;;
8001;SDS011;4046;48.774;8.732;2022-10-16T09:20:49;2.00;;;1.40;;
8001;SDS011;4046;48.774;8.732;2022-10-16T09:23:35;1.80;;;1.00;;
8001;SDS011;4046;48.774;8.732;2022-10-16T09:26:02;3.10;;;1.00;;
8001;SDS011;4046;48.774;8.732;2022-10-16T09:28:28;1.60;;;1.00;;
8001;SDS011;4046;48.774;8.732;2022-10-16T09:30:54;2.50;;;1.00;;
8001;SDS011;4046;48.774;8.732;2022-10-16T09:33:21;1.83;;;1.10;;
8001;SDS011;4046;48.774;8.732;2022-10-16T09:35:51;2.43;;;1.10;;
8001;SDS011;4046;48.774;8.732;2022-10-16T09:38:29;1.87;;;1.17;;
8001;SDS011;4046;48.774;8.732;2022-10-16T09:41:02;3.10;;;1.30;;
8001;SDS011;4046;48.774;8.732;2022-10-16T09:43:56;3.17;;;1.10;;
8001;SDS011;4046;48.774;8.732;2022-10-16T09:46:25;11.73;;;1.30;;
8001;SDS011;4046;48.774;8.732;2022-10-16T09:49:03;3.00;;;1.40;;
8001;SDS011;4046;48.774;8.732;2022-10-16T09:51:41;2.03;;;1.23;;
8001;SDS011;4046;48.774;8.732;2022-10-16T09:56:36;3.13;;;1.30;;
8001;SDS011;4046;48.774;8.732;2022-10-16T09:59:17;3.63;;;1.07;;
8001;SDS011;4046;48.774;8.732;2022-10-16T10:01:49;4.17;;;1.20;;
8001;SDS011;4046;48.774;8.732;2022-10-16T10:04:16;2.43;;;1.20;;
8001;SDS011;4046;48.774;8.732;2022-10-16T10:06:53;5.63;;;1.40;;
8001;SDS011;4046;48.774;8.732;2022-10-16T10:09:22;3.23;;;1.30;;
8001;SDS011;4046;48.774;8.732;2022-10-16T10:11:57;3.00;;;1.23;;
8001;SDS011;4046;48.774;8.732;2022-10-16T10:14:31;9.77;;;2.07;;
8001;SDS011;4046;48.774;8.732;2022-10-16T10:22:21;11.47;;;1.80;;
8001;SDS011;4046;48.774;8.732;2022-10-16T10:30:18;13.10;;;1.70;;
8001;SDS011;4046;48.774;8.732;2022-10-16T10:35:54;14.60;;;2.30;;
8001;SDS011;4046;48.774;8.732;2022-10-16T10:41:02;7.27;;;1.90;;
8001;SDS011;4046;48.774;8.732;2022-10-16T10:46:55;11.67;;;3.60;;
8001;SDS011;4046;48.774;8.732;2022-10-16T10:49:32;9.00;;;4.47;;
8001;SDS011;4046;48.774;8.732;2022-10-16T10:55:20;21.40;;;10.27;;
8001;SDS011;4046;48.774;8.732;2022-10-16T11:01:11;25.87;;;15.57;;
8001;SDS011;4046;48.774;8.732;2022-10-16T11:07:04;33.27;;;18.10;;
8001;SDS011;4046;48.774;8.732;2022-10-16T11:09:41;37.03;;;21.23;;
8001;SDS011;4046;48.774;8.732;2022-10-16T11:14:50;46.30;;;26.93;;
8001;SDS011;4046;48.774;8.732;2022-10-16T11:17:38;48.13;;;28.10;;
8001;SDS011;4046;48.774;8.732;2022-10-16T11:20:14;55.03;;;30.40;;
8001;SDS011;4046;48.774;8.732;2022-10-16T11:22:46;53.27;;;33.50;;
8001;SDS011;4046;48.774;8.732;2022-10-16T11:30:52;57.83;;;33.97;;
8001;SDS011;4046;48.774;8.732;2022-10-16T11:33:27;56.03;;;36.40;;
8001;SDS011;4046;48.774;8.732;2022-10-16T11:36:29;60.00;;;37.60;;
8001;SDS011;4046;48.774;8.732;2022-10-16T11:39:02;62.60;;;37.30;;
8001;SDS011;4046;48.774;8.732;2022-10-16T11:50:12;41.40;;;29.17;;
8001;SDS011;4046;48.774;8.732;2022-10-16T11:55:42;44.90;;;27.50;;
8001;SDS011;4046;48.774;8.732;2022-10-16T12:06:29;40.23;;;26.73;;
8001;SDS011;4046;48.774;8.732;2022-10-16T12:09:01;70.70;;;38.40;;
8001;SDS011;4046;48.774;8.732;2022-10-16T12:14:18;111.63;;;54.63;;
8001;SDS011;4046;48.774;8.732;2022-10-16T12:16:56;177.43;;;89.83;;
8001;SDS011;4046;48.774;8.732;2022-10-16T12:19:30;209.07;;;101.90;;
8001;SDS011;4046;48.774;8.732;2022-10-16T12:21:57;228.07;;;113.77;;
8001;SDS011;4046;48.774;8.732;2022-10-16T12:26:54;248.03;;;123.27;;
8001;SDS011;4046;48.774;8.732;2022-10-16T12:29:29;248.63;;;123.83;;
8001;SDS011;4046;48.774;8.732;2022-10-16T12:31:59;250.77;;;119.80;;
8001;SDS011;4046;48.774;8.732;2022-10-16T12:37:08;232.40;;;125.03;;
8001;SDS011;4046;48.774;8.732;2022-10-16T12:39:48;246.70;;;128.03;;
8001;SDS011;4046;48.774;8.732;2022-10-16T12:42:33;243.33;;;126.60;;
8001;SDS011;4046;48.774;8.732;2022-10-16T12:45:00;237.93;;;124.20;;
8001;SDS011;4046;48.774;8.732;2022-10-16T12:49:55;241.17;;;131.30;;
8001;SDS011;4046;48.774;8.732;2022-10-16T12:52:34;247.10;;;130.30;;
8001;SDS011;4046;48.774;8.732;2022-10-16T12:55:02;258.03;;;134.90;;
8001;SDS011;4046;48.774;8.732;2022-10-16T13:00:26;246.50;;;133.30;;
8001;SDS011;4046;48.774;8.732;2022-10-16T13:22:43;230.37;;;129.90;;
8001;SDS011;4046;48.774;8.732;2022-10-16T13:28:07;221.77;;;126.70;;
8001;SDS011;4046;48.774;8.732;2022-10-16T13:30:45;215.73;;;126.10;;
8001;SDS011;4046;48.774;8.732;2022-10-16T13:33:19;213.03;;;123.80;;
8001;SDS011;4046;48.774;8.732;2022-10-16T13:35:51;203.40;;;117.47;;
8001;SDS011;4046;48.774;8.732;2022-10-16T13:38:20;193.97;;;117.47;;
8001;SDS011;4046;48.774;8.732;2022-10-16T13:43:22;189.17;;;115.00;;
8001;SDS011;4046;48.774;8.732;2022-10-16T13:45:54;183.70;;;112.47;;
8001;SDS011;4046;48.774;8.732;2022-10-16T13:48:21;186.23;;;111.77;;
8001;SDS011;4046;48.774;8.732;2022-10-16T13:50:57;197.73;;;117.07;;
8001;SDS011;4046;48.774;8.732;2022-10-16T13:53:24;188.80;;;114.30;;
8001;SDS011;4046;48.774;8.732;2022-10-16T13:55:49;187.73;;;117.30;;
8001;SDS011;4046;48.774;8.732;2022-10-16T13:58:15;182.60;;;114.90;;
8001;SDS011;4046;48.774;8.732;2022-10-16T14:00:51;193.07;;;117.40;;
8001;SDS011;4046;48.774;8.732;2022-10-16T14:03:23;178.83;;;113.60;;
8001;SDS011;4046;48.774;8.732;2022-10-16T14:05:51;188.47;;;114.73;;
8001;SDS011;4046;48.774;8.732;2022-10-16T14:08:19;177.90;;;112.23;;
8001;SDS011;4046;48.774;8.732;2022-10-16T14:10:50;179.87;;;111.43;;
8001;SDS011;4046;48.774;8.732;2022-10-16T14:13:29;178.30;;;112.50;;
8001;SDS011;4046;48.774;8.732;2022-10-16T14:15:59;176.77;;;107.70;;
8001;SDS011;4046;48.774;8.732;2022-10-16T14:18:41;177.50;;;105.67;;
8001;SDS011;4046;48.774;8.732;2022-10-16T14:21:12;160.80;;;103.63;;
8001;SDS011;4046;48.774;8.732;2022-10-16T14:23:41;153.30;;;99.07;;
8001;SDS011;4046;48.774;8.732;2022-10-16T14:28:38;168.40;;;100.83;;
8001;SDS011;4046;48.774;8.732;2022-10-16T14:31:24;163.43;;;97.70;;
8001;SDS011;4046;48.774;8.732;2022-10-16T14:33:55;147.93;;;94.27;;
8001;SDS011;4046;48.774;8.732;2022-10-16T14:36:21;152.13;;;96.43;;
8001;SDS011;4046;48.774;8.732;2022-10-16T14:38:56;166.93;;;99.90;;
8001;SDS011;4046;48.774;8.732;2022-10-16T14:41:23;150.53;;;95.10;;
8001;SDS011;4046;48.774;8.732;2022-10-16T14:43:56;148.13;;;92.73;;
8001;SDS011;4046;48.774;8.732;2022-10-16T14:46:36;135.27;;;86.63;;
8001;SDS011;4046;48.774;8.732;2022-10-16T14:51:36;143.40;;;90.00;;
8001;SDS011;4046;48.774;8.732;2022-10-16T14:54:03;148.37;;;91.57;;
8001;SDS011;4046;48.774;8.732;2022-10-16T14:56:30;140.97;;;86.73;;
8001;SDS011;4046;48.774;8.732;2022-10-16T14:59:00;136.67;;;86.37;;
8001;SDS011;4046;48.774;8.732;2022-10-16T15:01:27;129.47;;;85.70;;
8001;SDS011;4046;48.774;8.732;2022-10-16T15:03:53;137.47;;;84.10;;
8001;SDS011;4046;48.774;8.732;2022-10-16T15:06:20;130.47;;;81.30;;
8001;SDS011;4046;48.774;8.732;2022-10-16T15:08:46;116.93;;;81.47;;
8001;SDS011;4046;48.774;8.732;2022-10-16T15:11:12;136.70;;;83.07;;
8001;SDS011;4046;48.774;8.732;2022-10-16T15:13:40;119.07;;;80.70;;
8001;SDS011;4046;48.774;8.732;2022-10-16T15:16:14;119.47;;;77.47;;
8001;SDS011;4046;48.774;8.732;2022-10-16T15:18:41;126.30;;;80.97;;
8001;SDS011;4046;48.774;8.732;2022-10-16T15:21:07;121.63;;;76.33;;
8001;SDS011;4046;48.774;8.732;2022-10-16T15:23:32;129.00;;;76.60;;
8001;SDS011;4046;48.774;8.732;2022-10-16T15:25:58;107.57;;;70.97;;
8001;SDS011;4046;48.774;8.732;2022-10-16T15:28:25;120.13;;;72.97;;
8001;SDS011;4046;48.774;8.732;2022-10-16T15:30:51;116.37;;;72.03;;
8001;SDS011;4046;48.774;8.732;2022-10-16T15:33:21;115.50;;;72.97;;
8001;SDS011;4046;48.774;8.732;2022-10-16T15:35:49;102.43;;;66.50;;
8001;SDS011;4046;48.774;8.732;2022-10-16T15:38:16;103.00;;;66.40;;
8001;SDS011;4046;48.774;8.732;2022-10-16T15:40:43;104.07;;;66.50;;
8001;SDS011;4046;48.774;8.732;2022-10-16T15:43:09;100.00;;;65.97;;
8001;SDS011;4046;48.774;8.732;2022-10-16T15:45:35;103.90;;;65.07;;
8001;SDS011;4046;48.774;8.732;2022-10-16T15:48:01;98.87;;;66.20;;
8001;SDS011;4046;48.774;8.732;2022-10-16T15:50:27;100.10;;;63.23;;
8001;SDS011;4046;48.774;8.732;2022-10-16T15:52:52;91.50;;;64.00;;
8001;SDS011;4046;48.774;8.732;2022-10-16T15:55:18;93.63;;;60.10;;
8001;SDS011;4046;48.774;8.732;2022-10-16T15:57:44;93.60;;;63.27;;
8001;SDS011;4046;48.774;8.732;2022-10-16T16:00:15;85.83;;;61.13;;
8001;SDS011;4046;48.774;8.732;2022-10-16T16:02:43;93.90;;;62.40;;
8001;SDS011;4046;48.774;8.732;2022-10-16T16:05:10;94.70;;;60.10;;
8001;SDS011;4046;48.774;8.732;2022-10-16T16:07:36;86.70;;;59.67;;
8001;SDS011;4046;48.774;8.732;2022-10-16T16:10:04;88.07;;;57.20;;
8001;SDS011;4046;48.774;8.732;2022-10-16T16:12:32;81.20;;;57.17;;
8001;SDS011;4046;48.774;8.732;2022-10-16T16:14:58;78.17;;;55.40;;
8001;SDS011;4046;48.774;8.732;2022-10-16T16:17:24;84.67;;;55.30;;
8001;SDS011;4046;48.774;8.732;2022-10-16T16:19:50;77.30;;;54.33;;
8001;SDS011;4046;48.774;8.732;2022-10-16T16:22:16;77.83;;;55.67;;
8001;SDS011;4046;48.774;8.732;2022-10-16T16:24:42;84.23;;;56.60;;
8001;SDS011;4046;48.774;8.732;2022-10-16T16:27:08;76.07;;;54.57;;
8001;SDS011;4046;48.774;8.732;2022-10-16T16:29:33;80.93;;;55.07;;
8001;SDS011;4046;48.774;8.732;2022-10-16T16:31:59;73.00;;;53.87;;
8001;SDS011;4046;48.774;8.732;2022-10-16T16:34:26;71.80;;;53.07;;
8001;SDS011;4046;48.774;8.732;2022-10-16T16:36:53;71.77;;;52.40;;
8001;SDS011;4046;48.774;8.732;2022-10-16T16:39:19;76.37;;;53.23;;
8001;SDS011;4046;48.774;8.732;2022-10-16T16:41:46;70.30;;;49.73;;
8001;SDS011;4046;48.774;8.732;2022-10-16T16:44:12;67.00;;;49.60;;
8001;SDS011;4046;48.774;8.732;2022-10-16T16:46:39;76.47;;;50.87;;
8001;SDS011;4046;48.774;8.732;2022-10-16T16:49:06;69.10;;;47.73;;
8001;SDS011;4046;48.774;8.732;2022-10-16T16:51:32;72.00;;;48.67;;
8001;SDS011;4046;48.774;8.732;2022-10-16T16:53:58;70.53;;;48.87;;
8001;SDS011;4046;48.774;8.732;2022-10-16T16:56:24;71.43;;;47.47;;
8001;SDS011;4046;48.774;8.732;2022-10-16T16:58:51;68.83;;;47.10;;
8001;SDS011;4046;48.774;8.732;2022-10-16T17:01:18;63.53;;;46.73;;
8001;SDS011;4046;48.774;8.732;2022-10-16T17:03:45;71.43;;;46.17;;
8001;SDS011;4046;48.774;8.732;2022-10-16T17:06:11;62.17;;;45.63;;
8001;SDS011;4046;48.774;8.732;2022-10-16T17:08:39;58.50;;;45.00;;
8001;SDS011;4046;48.774;8.732;2022-10-16T17:11:06;59.23;;;42.77;;
8001;SDS011;4046;48.774;8.732;2022-10-16T17:13:37;69.87;;;46.67;;
8001;SDS011;4046;48.774;8.732;2022-10-16T17:16:03;63.33;;;43.97;;
8001;SDS011;4046;48.774;8.732;2022-10-16T17:18:30;64.17;;;45.57;;